sensor_id;sensor_type;location;lat;lon;timestamp;pressure;altitude;pressure_sealevel;temperature;humidity
5500;BME280;2772;42.700;23.304;2023-02-23T00:00:14;94984.19;;;10.71;100.00
5500;BME280;2772;42.700;23.304;2023-02-23T00:02:47;94987.97;;;10.70;100.00
5500;BME280;2772;42.700;23.304;2023-02-23T00:05:15;94993.75;;;10.64;100.00
5500;BME280;2772;42.700;23.304;2023-02-23T00:07:42;95005.66;;;10.66;100.00
5500;BME280;2772;42.700;23.304;2023-02-23T00:10:11;94995.78;;;10.67;100.00
5500;BME280;2772;42.700;23.304;2023-02-23T00:12:39;95003.41;;;10.51;100.00
5500;BME280;2772;42.700;23.304;2023-02-23T00:15:07;95005.81;;;10.61;100.00
5500;BME280;2772;42.700;23.304;2023-02-23T00:17:36;95004.56;;;10.67;100.00
5500;BME280;2772;42.700;23.304;2023-02-23T00:20:07;95001.59;;;10.69;100.00
5500;BME280;2772;42.700;23.304;2023-02-23T00:22:36;95005.50;;;10.71;100.00
5500;BME280;2772;42.700;23.304;2023-02-23T00:25:05;95004.25;;;10.69;100.00
5500;BME280;2772;42.700;23.304;2023-02-23T00:27:33;95004.53;;;10.59;100.00
5500;BME280;2772;42.700;23.304;2023-02-23T00:30:01;95008.00;;;10.59;100.00
5500;BME280;2772;42.700;23.304;2023-02-23T00:32:28;95010.66;;;10.68;100.00
5500;BME280;2772;42.700;23.304;2023-02-23T00:34:56;95004.09;;;10.65;100.00
5500;BME280;2772;42.700;23.304;2023-02-23T00:37:23;95011.22;;;10.48;100.00
5500;BME280;2772;42.700;23.304;2023-02-23T00:39:53;95004.81;;;10.49;100.00
5500;BME280;2772;42.700;23.304;2023-02-23T00:42:21;95011.06;;;10.44;100.00
5500;BME280;2772;42.700;23.304;2023-02-23T00:44:48;95011.03;;;10.36;100.00
5500;BME280;2772;42.700;23.304;2023-02-23T00:47:14;95015.72;;;10.30;100.00
5500;BME280;2772;42.700;23.304;2023-02-23T00:49:41;95005.00;;;10.22;100.00
5500;BME280;2772;42.700;23.304;2023-02-23T00:52:10;95007.50;;;10.18;100.00
5500;BME280;2772;42.700;23.304;2023-02-23T00:54:39;94999.03;;;10.16;100.00
5500;BME280;2772;42.700;23.304;2023-02-23T00:57:06;95006.00;;;10.04;100.00
5500;BME280;2772;42.700;23.304;2023-02-23T00:59:33;95010.91;;;9.88;100.00
5500;BME280;2772;42.700;23.304;2023-02-23T01:02:00;95003.69;;;9.89;100.00
5500;BME280;2772;42.700;23.304;2023-02-23T01:04:27;95003.34;;;9.82;100.00
5500;BME280;2772;42.700;23.304;2023-02-23T01:06:53;95007.75;;;9.64;100.00
5500;BME280;2772;42.700;23.304;2023-02-23T01:09:22;95006.97;;;9.63;100.00
5500;BME280;2772;42.700;23.304;2023-02-23T01:11:53;95008.56;;;9.64;100.00
5500;BME280;2772;42.700;23.304;2023-02-23T01:14:22;95019.19;;;9.64;100.00
5500;BME280;2772;42.700;23.304;2023-02-23T01:16:49;95000.19;;;9.57;100.00
5500;BME280;2772;42.700;23.304;2023-02-23T01:19:16;95004.06;;;9.51;100.00
5500;BME280;2772;42.700;23.304;2023-02-23T01:21:43;95011.97;;;9.43;100.00
5500;BME280;2772;42.700;23.304;2023-02-23T01:24:10;95005.34;;;9.32;100.00
5500;BME280;2772;42.700;23.304;2023-02-23T01:26:40;94997.88;;;9.20;100.00
5500;BME280;2772;42.700;23.304;2023-02-23T01:29:09;95001.13;;;9.17;100.00
5500;BME280;2772;42.700;23.304;2023-02-23T01:31:38;95001.19;;;9.26;100.00
5500;BME280;2772;42.700;23.304;2023-02-23T01:34:06;94999.63;;;9.25;100.00
5500;BME280;2772;42.700;23.304;2023-02-23T01:36:34;95000.53;;;9.20;100.00
5500;BME280;2772;42.700;23.304;2023-02-23T01:39:04;95001.66;;;9.06;100.00
5500;BME280;2772;42.700;23.304;2023-02-23T01:41:33;95007.50;;;8.94;100.00
5500;BME280;2772;42.700;23.304;2023-02-23T01:44:04;94999.00;;;9.06;100.00
5500;BME280;2772;42.700;23.304;2023-02-23T01:46:33;94995.63;;;9.14;100.00
5500;BME280;2772;42.700;23.304;2023-02-23T01:49:01;95001.94;;;9.18;100.00
5500;BME280;2772;42.700;23.304;2023-02-23T01:51:30;94999.28;;;9.18;100.00
5500;BME280;2772;42.700;23.304;2023-02-23T01:54:00;94999.28;;;9.18;100.00
5500;BME280;2772;42.700;23.304;2023-02-23T01:56:32;94997.13;;;9.06;100.00
5500;BME280;2772;42.700;23.304;2023-02-23T01:59:04;95000.44;;;9.12;100.00
5500;BME280;2772;42.700;23.304;2023-02-23T02:01:31;95002.03;;;9.13;100.00
5500;BME280;2772;42.700;23.304;2023-02-23T02:04:01;95001.94;;;9.04;100.00
5500;BME280;2772;42.700;23.304;2023-02-23T02:06:31;94998.69;;;9.07;100.00
5500;BME280;2772;42.700;23.304;2023-02-23T02:09:01;94987.72;;;9.00;100.00
5500;BME280;2772;42.700;23.304;2023-02-23T02:11:32;94999.22;;;8.96;100.00
5500;BME280;2772;42.700;23.304;2023-02-23T02:14:06;94991.72;;;8.98;100.00
5500;BME280;2772;42.700;23.304;2023-02-23T02:16:56;94993.63;;;8.84;100.00
5500;BME280;2772;42.700;23.304;2023-02-23T02:22:43;94995.88;;;8.90;100.00
5500;BME280;2772;42.700;23.304;2023-02-23T02:25:34;95001.50;;;8.89;100.00
5500;BME280;2772;42.700;23.304;2023-02-23T02:28:31;94996.97;;;8.89;100.00
5500;BME280;2772;42.700;23.304;2023-02-23T02:34:55;95011.03;;;8.76;100.00
5500;BME280;2772;42.700;23.304;2023-02-23T02:37:39;95004.06;;;8.80;100.00
5500;BME280;2772;42.700;23.304;2023-02-23T02:40:20;95001.41;;;8.80;100.00
5500;BME280;2772;42.700;23.304;2023-02-23T02:43:05;95000.03;;;8.83;100.00
5500;BME280;2772;42.700;23.304;2023-02-23T02:45:41;95005.44;;;8.78;100.00
5500;BME280;2772;42.700;23.304;2023-02-23T02:48:23;95001.41;;;8.80;100.00
5500;BME280;2772;42.700;23.304;2023-02-23T02:50:59;95003.88;;;8.77;100.00
5500;BME280;2772;42.700;23.304;2023-02-23T02:53:35;94995.50;;;8.70;100.00
5500;BME280;2772;42.700;23.304;2023-02-23T02:56:06;94996.59;;;8.69;100.00
5500;BME280;2772;42.700;23.304;2023-02-23T02:58:34;94991.88;;;8.66;100.00
5500;BME280;2772;42.700;23.304;2023-02-23T03:01:07;94992.47;;;8.63;100.00
5500;BME280;2772;42.700;23.304;2023-02-23T03:03:52;94992.88;;;8.56;100.00
5500;BME280;2772;42.700;23.304;2023-02-23T03:06:42;94993.66;;;8.43;100.00
5500;BME280;2772;42.700;23.304;2023-02-23T03:09:34;94995.72;;;8.46;100.00
5500;BME280;2772;42.700;23.304;2023-02-23T03:12:26;95000.13;;;8.37;100.00
5500;BME280;2772;42.700;23.304;2023-02-23T03:15:23;95000.13;;;8.37;100.00
5500;BME280;2772;42.700;23.304;2023-02-23T03:18:20;94994.66;;;8.34;100.00
5500;BME280;2772;42.700;23.304;2023-02-23T03:21:14;95002.84;;;8.19;100.00
5500;BME280;2772;42.700;23.304;2023-02-23T03:24:03;95012.25;;;7.97;100.00
5500;BME280;2772;42.700;23.304;2023-02-23T03:26:57;95007.03;;;7.92;100.00
5500;BME280;2772;42.700;23.304;2023-02-23T03:29:51;95010.22;;;8.08;100.00
5500;BME280;2772;42.700;23.304;2023-02-23T03:32:44;95012.66;;;8.04;100.00
5500;BME280;2772;42.700;23.304;2023-02-23T03:35:33;95014.69;;;7.80;100.00
5500;BME280;2772;42.700;23.304;2023-02-23T03:38:25;95015.50;;;7.62;100.00
5500;BME280;2772;42.700;23.304;2023-02-23T03:41:13;95013.03;;;7.52;100.00
5500;BME280;2772;42.700;23.304;2023-02-23T03:44:04;95009.97;;;7.59;100.00
5500;BME280;2772;42.700;23.304;2023-02-23T03:46:51;95022.09;;;7.65;100.00
5500;BME280;2772;42.700;23.304;2023-02-23T03:49:38;95018.00;;;7.72;100.00
5500;BME280;2772;42.700;23.304;2023-02-23T03:52:25;95018.56;;;7.69;100.00
5500;BME280;2772;42.700;23.304;2023-02-23T03:55:14;95030.41;;;7.58;100.00
5500;BME280;2772;42.700;23.304;2023-02-23T03:58:00;95024.47;;;7.29;100.00
5500;BME280;2772;42.700;23.304;2023-02-23T04:00:50;95024.19;;;6.94;100.00
5500;BME280;2772;42.700;23.304;2023-02-23T04:03:39;95031.38;;;7.12;100.00
5500;BME280;2772;42.700;23.304;2023-02-23T04:06:25;95031.84;;;7.32;100.00
5500;BME280;2772;42.700;23.304;2023-02-23T04:09:11;95027.41;;;7.46;100.00
5500;BME280;2772;42.700;23.304;2023-02-23T04:11:59;95029.06;;;7.42;100.00
5500;BME280;2772;42.700;23.304;2023-02-23T04:14:50;95023.47;;;7.44;100.00
5500;BME280;2772;42.700;23.304;2023-02-23T04:17:22;95029.69;;;7.53;100.00
5500;BME280;2772;42.700;23.304;2023-02-23T04:19:55;95025.84;;;7.45;100.00
5500;BME280;2772;42.700;23.304;2023-02-23T04:22:22;95020.69;;;7.54;100.00
5500;BME280;2772;42.700;23.304;2023-02-23T04:24:49;95023.13;;;7.50;100.00
5500;BME280;2772;42.700;23.304;2023-02-23T04:27:17;95024.09;;;7.54;100.00
5500;BME280;2772;42.700;23.304;2023-02-23T04:29:44;95018.75;;;7.41;100.00
5500;BME280;2772;42.700;23.304;2023-02-23T04:32:13;95013.44;;;7.41;100.00
5500;BME280;2772;42.700;23.304;2023-02-23T04:34:42;95025.44;;;7.38;100.00
5500;BME280;2772;42.700;23.304;2023-02-23T04:37:09;95024.84;;;7.41;100.00
5500;BME280;2772;42.700;23.304;2023-02-23T04:39:36;95020.53;;;7.45;100.00
5500;BME280;2772;42.700;23.304;2023-02-23T04:42:03;95032.41;;;7.48;100.00
5500;BME280;2772;42.700;23.304;2023-02-23T04:44:30;95030.25;;;7.50;100.00
5500;BME280;2772;42.700;23.304;2023-02-23T04:46:56;95023.69;;;7.47;100.00
5500;BME280;2772;42.700;23.304;2023-02-23T04:49:23;95027.97;;;7.43;100.00
5500;BME280;2772;42.700;23.304;2023-02-23T04:51:51;95031.41;;;7.44;100.00
5500;BME280;2772;42.700;23.304;2023-02-23T04:54:18;95023.91;;;7.32;100.00
5500;BME280;2772;42.700;23.304;2023-02-23T04:56:45;95030.16;;;7.41;100.00
5500;BME280;2772;42.700;23.304;2023-02-23T04:59:12;95030.78;;;7.33;100.00
5500;BME280;2772;42.700;23.304;2023-02-23T05:01:38;95033.78;;;7.27;100.00
5500;BME280;2772;42.700;23.304;2023-02-23T05:04:05;95031.22;;;7.22;100.00
5500;BME280;2772;42.700;23.304;2023-02-23T05:06:32;95030.56;;;7.11;100.00
5500;BME280;2772;42.700;23.304;2023-02-23T05:09:00;95028.72;;;7.30;100.00
5500;BME280;2772;42.700;23.304;2023-02-23T05:11:29;95030.06;;;7.28;100.00
5500;BME280;2772;42.700;23.304;2023-02-23T05:13:56;95028.56;;;7.40;100.00
5500;BME280;2772;42.700;23.304;2023-02-23T05:16:22;95027.03;;;7.53;100.00
5500;BME280;2772;42.700;23.304;2023-02-23T05:18:49;95029.09;;;7.56;100.00
5500;BME280;2772;42.700;23.304;2023-02-23T05:21:16;95032.78;;;7.60;100.00
5500;BME280;2772;42.700;23.304;2023-02-23T05:23:43;95034.91;;;7.58;100.00
5500;BME280;2772;42.700;23.304;2023-02-23T05:26:12;95039.84;;;7.64;100.00
5500;BME280;2772;42.700;23.304;2023-02-23T05:28:40;95043.38;;;7.60;100.00
5500;BME280;2772;42.700;23.304;2023-02-23T05:31:07;95048.84;;;7.63;100.00
5500;BME280;2772;42.700;23.304;2023-02-23T05:33:35;95045.66;;;7.66;100.00
5500;BME280;2772;42.700;23.304;2023-02-23T05:36:07;95039.91;;;7.59;100.00
5500;BME280;2772;42.700;23.304;2023-02-23T05:38:34;95053.19;;;7.59;100.00
5500;BME280;2772;42.700;23.304;2023-02-23T05:41:04;95055.47;;;7.47;100.00
5500;BME280;2772;42.700;23.304;2023-02-23T05:43:32;95050.94;;;7.48;100.00
5500;BME280;2772;42.700;23.304;2023-02-23T05:45:59;95056.63;;;7.41;100.00
5500;BME280;2772;42.700;23.304;2023-02-23T05:48:27;95064.41;;;7.51;100.00
5500;BME280;2772;42.700;23.304;2023-02-23T05:50:54;95070.88;;;7.45;100.00
5500;BME280;2772;42.700;23.304;2023-02-23T05:53:20;95072.09;;;7.34;100.00
5500;BME280;2772;42.700;23.304;2023-02-23T05:55:47;95075.25;;;7.36;100.00
5500;BME280;2772;42.700;23.304;2023-02-23T05:58:14;95077.72;;;7.46;100.00
5500;BME280;2772;42.700;23.304;2023-02-23T06:00:42;95078.19;;;7.53;100.00
5500;BME280;2772;42.700;23.304;2023-02-23T06:03:09;95082.19;;;7.51;100.00
5500;BME280;2772;42.700;23.304;2023-02-23T06:05:36;95078.69;;;7.55;100.00
5500;BME280;2772;42.700;23.304;2023-02-23T06:08:03;95083.69;;;7.57;100.00
5500;BME280;2772;42.700;23.304;2023-02-23T06:10:30;95087.63;;;7.59;100.00
5500;BME280;2772;42.700;23.304;2023-02-23T06:12:56;95088.19;;;7.56;100.00
5500;BME280;2772;42.700;23.304;2023-02-23T06:15:23;95087.63;;;7.59;100.00
5500;BME280;2772;42.700;23.304;2023-02-23T06:17:51;95091.91;;;7.74;100.00
5500;BME280;2772;42.700;23.304;2023-02-23T06:20:18;95095.25;;;7.79;100.00
5500;BME280;2772;42.700;23.304;2023-02-23T06:22:45;95089.16;;;8.30;100.00
5500;BME280;2772;42.700;23.304;2023-02-23T06:25:12;95092.16;;;9.09;100.00
5500;BME280;2772;42.700;23.304;2023-02-23T06:27:39;95088.94;;;9.48;100.00
5500;BME280;2772;42.700;23.304;2023-02-23T06:30:07;95085.16;;;10.20;100.00
5500;BME280;2772;42.700;23.304;2023-02-23T06:32:35;95085.94;;;10.51;100.00
5500;BME280;2772;42.700;23.304;2023-02-23T06:35:05;95102.66;;;9.99;100.00
5500;BME280;2772;42.700;23.304;2023-02-23T06:37:32;95110.50;;;9.60;100.00
5500;BME280;2772;42.700;23.304;2023-02-23T06:39:58;95110.53;;;9.33;100.00
5500;BME280;2772;42.700;23.304;2023-02-23T06:42:25;95111.06;;;9.08;100.00
5500;BME280;2772;42.700;23.304;2023-02-23T06:44:52;95120.72;;;9.04;100.00
5500;BME280;2772;42.700;23.304;2023-02-23T06:47:19;95120.91;;;8.94;100.00
5500;BME280;2772;42.700;23.304;2023-02-23T06:49:46;95116.84;;;8.83;100.00
5500;BME280;2772;42.700;23.304;2023-02-23T06:52:14;95112.13;;;8.80;100.00
5500;BME280;2772;42.700;23.304;2023-02-23T06:54:42;95111.03;;;8.67;100.00
5500;BME280;2772;42.700;23.304;2023-02-23T06:57:09;95117.75;;;8.65;100.00
5500;BME280;2772;42.700;23.304;2023-02-23T06:59:36;95110.63;;;8.60;100.00
5500;BME280;2772;42.700;23.304;2023-02-23T07:02:04;95113.69;;;8.67;100.00
5500;BME280;2772;42.700;23.304;2023-02-23T07:04:31;95115.69;;;8.62;100.00
5500;BME280;2772;42.700;23.304;2023-02-23T07:06:58;95112.13;;;8.66;100.00
5500;BME280;2772;42.700;23.304;2023-02-23T07:09:26;95113.69;;;8.67;100.00
5500;BME280;2772;42.700;23.304;2023-02-23T07:11:53;95107.78;;;8.57;100.00
5500;BME280;2772;42.700;23.304;2023-02-23T07:14:19;95109.47;;;8.80;100.00
5500;BME280;2772;42.700;23.304;2023-02-23T07:16:46;95121.06;;;8.84;100.00
5500;BME280;2772;42.700;23.304;2023-02-23T07:19:13;95118.41;;;8.70;100.00
5500;BME280;2772;42.700;23.304;2023-02-23T07:21:40;95121.88;;;8.71;100.00
5500;BME280;2772;42.700;23.304;2023-02-23T07:24:07;95108.50;;;8.89;100.00
5500;BME280;2772;42.700;23.304;2023-02-23T07:26:35;95112.06;;;8.85;100.00
5500;BME280;2772;42.700;23.304;2023-02-23T07:29:02;95114.00;;;9.06;100.00
5500;BME280;2772;42.700;23.304;2023-02-23T07:31:29;95106.41;;;9.13;100.00
5500;BME280;2772;42.700;23.304;2023-02-23T07:33:55;95103.66;;;9.32;100.00
5500;BME280;2772;42.700;23.304;2023-02-23T07:36:23;95104.06;;;9.25;100.00
5500;BME280;2772;42.700;23.304;2023-02-23T07:38:50;95103.44;;;9.42;100.00
5500;BME280;2772;42.700;23.304;2023-02-23T07:41:16;95102.22;;;9.48;100.00
5500;BME280;2772;42.700;23.304;2023-02-23T07:43:44;95108.13;;;9.58;100.00
5500;BME280;2772;42.700;23.304;2023-02-23T07:46:11;95099.25;;;9.63;100.00
5500;BME280;2772;42.700;23.304;2023-02-23T07:48:39;95098.34;;;9.68;100.00
5500;BME280;2772;42.700;23.304;2023-02-23T07:51:10;95096.13;;;9.83;100.00
5500;BME280;2772;42.700;23.304;2023-02-23T07:53:37;95096.47;;;9.90;100.00
5500;BME280;2772;42.700;23.304;2023-02-23T07:56:04;95099.09;;;9.82;100.00
5500;BME280;2772;42.700;23.304;2023-02-23T07:58:32;95075.81;;;10.62;100.00
5500;BME280;2772;42.700;23.304;2023-02-23T08:01:00;95092.75;;;10.35;100.00
5500;BME280;2772;42.700;23.304;2023-02-23T08:03:27;95093.34;;;10.32;100.00
5500;BME280;2772;42.700;23.304;2023-02-23T08:05:54;95091.69;;;10.36;100.00
5500;BME280;2772;42.700;23.304;2023-02-23T08:08:21;95095.50;;;10.22;100.00
5500;BME280;2772;42.700;23.304;2023-02-23T08:10:47;95092.84;;;10.22;100.00
5500;BME280;2772;42.700;23.304;2023-02-23T08:13:14;95091.56;;;10.19;100.00
5500;BME280;2772;42.700;23.304;2023-02-23T08:15:41;95085.94;;;10.21;100.00
5500;BME280;2772;42.700;23.304;2023-02-23T08:18:09;95084.41;;;10.28;100.00
5500;BME280;2772;42.700;23.304;2023-02-23T08:20:36;95088.41;;;10.39;100.00
5500;BME280;2772;42.700;23.304;2023-02-23T08:23:03;95089.34;;;10.43;100.00
5500;BME280;2772;42.700;23.304;2023-02-23T08:25:30;95087.50;;;10.52;100.00
5500;BME280;2772;42.700;23.304;2023-02-23T08:27:57;95083.78;;;10.53;100.00
5500;BME280;2772;42.700;23.304;2023-02-23T08:30:29;95087.25;;;10.62;100.00
5500;BME280;2772;42.700;23.304;2023-02-23T08:32:56;95083.53;;;10.72;100.00
5500;BME280;2772;42.700;23.304;2023-02-23T08:35:24;95090.19;;;10.83;100.00
5500;BME280;2772;42.700;23.304;2023-02-23T08:37:51;95088.91;;;10.80;99.83
5500;BME280;2772;42.700;23.304;2023-02-23T08:40:18;95091.13;;;10.87;99.15
5500;BME280;2772;42.700;23.304;2023-02-23T08:42:45;95088.19;;;10.97;98.34
5500;BME280;2772;42.700;23.304;2023-02-23T08:45:13;95089.31;;;11.04;97.59
5500;BME280;2772;42.700;23.304;2023-02-23T08:47:40;95091.34;;;11.07;96.65
5500;BME280;2772;42.700;23.304;2023-02-23T08:50:08;95083.09;;;11.17;96.48
5500;BME280;2772;42.700;23.304;2023-02-23T08:52:37;95083.72;;;11.23;95.41
5500;BME280;2772;42.700;23.304;2023-02-23T08:55:04;95081.69;;;11.29;94.63
5500;BME280;2772;42.700;23.304;2023-02-23T08:57:31;95080.28;;;11.31;93.45
5500;BME280;2772;42.700;23.304;2023-02-23T08:59:58;95084.19;;;11.34;93.20
5500;BME280;2772;42.700;23.304;2023-02-23T09:02:25;95082.03;;;11.44;92.40
5500;BME280;2772;42.700;23.304;2023-02-23T09:04:52;95075.13;;;11.35;91.88
5500;BME280;2772;42.700;23.304;2023-02-23T09:07:20;95076.69;;;11.36;91.31
5500;BME280;2772;42.700;23.304;2023-02-23T09:09:53;95076.69;;;11.36;91.63
5500;BME280;2772;42.700;23.304;2023-02-23T09:12:20;95078.09;;;11.42;91.60
5500;BME280;2772;42.700;23.304;2023-02-23T09:14:47;95068.84;;;11.39;91.07
5500;BME280;2772;42.700;23.304;2023-02-23T09:17:15;95076.69;;;11.44;91.67
5500;BME280;2772;42.700;23.304;2023-02-23T09:19:42;95070.00;;;11.64;91.27
5500;BME280;2772;42.700;23.304;2023-02-23T09:22:08;95067.34;;;11.72;89.71
5500;BME280;2772;42.700;23.304;2023-02-23T09:24:35;95067.66;;;11.88;88.73
5500;BME280;2772;42.700;23.304;2023-02-23T09:27:04;95067.16;;;12.03;88.14
5500;BME280;2772;42.700;23.304;2023-02-23T09:29:31;95069.53;;;12.13;86.35
5500;BME280;2772;42.700;23.304;2023-02-23T09:31:58;95073.13;;;12.25;86.02
5500;BME280;2772;42.700;23.304;2023-02-23T09:34:24;95073.06;;;12.34;84.91
5500;BME280;2772;42.700;23.304;2023-02-23T09:36:55;95076.38;;;12.39;84.44
5500;BME280;2772;42.700;23.304;2023-02-23T09:39:21;95072.41;;;12.54;83.70
5500;BME280;2772;42.700;23.304;2023-02-23T09:42:09;95071.41;;;12.67;83.00
5500;BME280;2772;42.700;23.304;2023-02-23T09:44:47;95075.63;;;12.76;82.28
5500;BME280;2772;42.700;23.304;2023-02-23T09:47:24;95079.97;;;12.90;81.05
5500;BME280;2772;42.700;23.304;2023-02-23T09:49:54;95071.78;;;12.95;80.14
5500;BME280;2772;42.700;23.304;2023-02-23T09:52:25;95070.03;;;12.99;80.56
5500;BME280;2772;42.700;23.304;2023-02-23T09:54:53;95070.50;;;13.09;79.69
5500;BME280;2772;42.700;23.304;2023-02-23T09:57:27;95062.72;;;13.16;78.75
5500;BME280;2772;42.700;23.304;2023-02-23T09:59:57;95054.19;;;13.23;77.60
5500;BME280;2772;42.700;23.304;2023-02-23T10:02:31;95055.72;;;13.32;77.50
5500;BME280;2772;42.700;23.304;2023-02-23T10:05:02;95059.97;;;13.33;76.54
5500;BME280;2772;42.700;23.304;2023-02-23T10:07:39;95054.31;;;13.55;77.44
5500;BME280;2772;42.700;23.304;2023-02-23T10:10:18;95054.50;;;13.71;76.33
5500;BME280;2772;42.700;23.304;2023-02-23T10:12:53;95052.44;;;13.76;74.61
5500;BME280;2772;42.700;23.304;2023-02-23T10:15:28;95039.50;;;13.78;74.61
5500;BME280;2772;42.700;23.304;2023-02-23T10:18:04;95043.56;;;13.84;73.57
5500;BME280;2772;42.700;23.304;2023-02-23T10:20:42;95044.13;;;13.90;73.06
5500;BME280;2772;42.700;23.304;2023-02-23T10:23:15;95041.56;;;13.93;72.25
5500;BME280;2772;42.700;23.304;2023-02-23T10:25:46;95045.16;;;13.97;72.23
5500;BME280;2772;42.700;23.304;2023-02-23T10:28:16;95036.91;;;14.02;71.31
5500;BME280;2772;42.700;23.304;2023-02-23T10:30:45;95021.31;;;14.04;71.52
5500;BME280;2772;42.700;23.304;2023-02-23T10:33:13;95029.91;;;14.10;71.63
5500;BME280;2772;42.700;23.304;2023-02-23T10:35:43;95020.59;;;14.16;71.03
5500;BME280;2772;42.700;23.304;2023-02-23T10:38:14;95011.69;;;14.24;70.28
5500;BME280;2772;42.700;23.304;2023-02-23T10:40:42;95015.41;;;14.32;70.20
5500;BME280;2772;42.700;23.304;2023-02-23T10:43:10;95014.09;;;14.38;69.78
5500;BME280;2772;42.700;23.304;2023-02-23T10:45:43;95009.88;;;14.49;69.44
5500;BME280;2772;42.700;23.304;2023-02-23T10:48:16;95007.41;;;14.56;68.49
5500;BME280;2772;42.700;23.304;2023-02-23T10:50:43;95002.97;;;14.60;67.84
5500;BME280;2772;42.700;23.304;2023-02-23T10:53:17;95005.19;;;14.70;67.35
5500;BME280;2772;42.700;23.304;2023-02-23T10:55:45;94996.25;;;14.66;66.81
5500;BME280;2772;42.700;23.304;2023-02-23T10:58:14;94992.91;;;14.69;66.87
5500;BME280;2772;42.700;23.304;2023-02-23T11:00:53;94994.03;;;14.80;66.96
5500;BME280;2772;42.700;23.304;2023-02-23T11:03:26;94984.84;;;14.93;66.85
5500;BME280;2772;42.700;23.304;2023-02-23T11:05:54;94988.97;;;15.02;65.68
5500;BME280;2772;42.700;23.304;2023-02-23T11:08:27;94980.81;;;15.11;65.09
5500;BME280;2772;42.700;23.304;2023-02-23T11:11:00;94984.03;;;15.16;64.52
5500;BME280;2772;42.700;23.304;2023-02-23T11:13:34;94972.56;;;15.16;64.50
5500;BME280;2772;42.700;23.304;2023-02-23T11:16:05;94969.19;;;15.19;64.48
5500;BME280;2772;42.700;23.304;2023-02-23T11:18:35;94977.00;;;15.24;64.10
5500;BME280;2772;42.700;23.304;2023-02-23T11:21:02;94972.28;;;15.33;63.93
5500;BME280;2772;42.700;23.304;2023-02-23T11:23:33;94972.63;;;15.43;63.52
5500;BME280;2772;42.700;23.304;2023-02-23T11:26:02;94956.63;;;15.47;62.93
5500;BME280;2772;42.700;23.304;2023-02-23T11:28:33;94960.06;;;15.59;62.60
5500;BME280;2772;42.700;23.304;2023-02-23T11:31:13;94959.22;;;15.71;61.93
5500;BME280;2772;42.700;23.304;2023-02-23T11:33:41;94949.31;;;15.87;61.51
5500;BME280;2772;42.700;23.304;2023-02-23T11:36:16;94954.88;;;15.94;60.73
5500;BME280;2772;42.700;23.304;2023-02-23T11:38:44;94947.09;;;16.05;60.51
5500;BME280;2772;42.700;23.304;2023-02-23T11:41:20;94947.13;;;16.20;60.05
5500;BME280;2772;42.700;23.304;2023-02-23T11:43:47;94940.81;;;16.28;59.71
5500;BME280;2772;42.700;23.304;2023-02-23T11:46:17;94948.53;;;16.30;58.93
5500;BME280;2772;42.700;23.304;2023-02-23T11:48:49;94944.97;;;16.41;58.46
5500;BME280;2772;42.700;23.304;2023-02-23T11:51:29;94944.75;;;16.46;58.08
5500;BME280;2772;42.700;23.304;2023-02-23T11:53:57;94946.63;;;16.46;57.26
5500;BME280;2772;42.700;23.304;2023-02-23T11:56:25;94947.19;;;16.51;57.24
5500;BME280;2772;42.700;23.304;2023-02-23T11:58:54;94941.81;;;16.51;56.63
5500;BME280;2772;42.700;23.304;2023-02-23T12:01:36;94933.38;;;16.53;56.46
5500;BME280;2772;42.700;23.304;2023-02-23T12:04:06;94927.81;;;16.61;57.10
5500;BME280;2772;42.700;23.304;2023-02-23T12:06:35;94936.41;;;16.67;56.63
5500;BME280;2772;42.700;23.304;2023-02-23T12:09:08;94929.19;;;16.71;56.80
5500;BME280;2772;42.700;23.304;2023-02-23T12:11:46;94925.06;;;16.73;55.77
5500;BME280;2772;42.700;23.304;2023-02-23T12:14:23;94926.78;;;16.81;55.83
5500;BME280;2772;42.700;23.304;2023-02-23T12:16:56;94924.50;;;16.83;55.51
5500;BME280;2772;42.700;23.304;2023-02-23T12:19:28;94916.97;;;16.89;55.27
5500;BME280;2772;42.700;23.304;2023-02-23T12:22:01;94923.03;;;16.86;55.07
5500;BME280;2772;42.700;23.304;2023-02-23T12:24:37;94926.22;;;16.91;55.10
5500;BME280;2772;42.700;23.304;2023-02-23T12:27:10;94913.66;;;16.95;54.89
5500;BME280;2772;42.700;23.304;2023-02-23T12:29:43;94914.94;;;17.01;54.54
5500;BME280;2772;42.700;23.304;2023-02-23T12:32:18;94918.13;;;17.07;54.63
5500;BME280;2772;42.700;23.304;2023-02-23T12:34:50;94913.66;;;17.14;54.43
5500;BME280;2772;42.700;23.304;2023-02-23T12:37:28;94913.47;;;17.23;53.50
5500;BME280;2772;42.700;23.304;2023-02-23T12:40:06;94914.41;;;17.30;53.71
5500;BME280;2772;42.700;23.304;2023-02-23T12:42:39;94911.22;;;17.25;52.67
5500;BME280;2772;42.700;23.304;2023-02-23T12:45:15;94910.88;;;17.26;52.43
5500;BME280;2772;42.700;23.304;2023-02-23T12:47:49;94911.44;;;17.35;52.50
5500;BME280;2772;42.700;23.304;2023-02-23T12:50:23;94905.25;;;17.35;51.88
5500;BME280;2772;42.700;23.304;2023-02-23T12:52:55;94907.31;;;17.41;52.01
5500;BME280;2772;42.700;23.304;2023-02-23T12:55:30;94898.06;;;17.39;51.82
5500;BME280;2772;42.700;23.304;2023-02-23T12:58:14;94903.97;;;17.45;50.81
5500;BME280;2772;42.700;23.304;2023-02-23T13:00:52;94887.69;;;17.41;50.57
5500;BME280;2772;42.700;23.304;2023-02-23T13:03:44;94899.69;;;17.43;51.38
5500;BME280;2772;42.700;23.304;2023-02-23T13:06:18;94892.66;;;17.39;51.68
5500;BME280;2772;42.700;23.304;2023-02-23T13:08:57;94889.34;;;17.26;52.01
5500;BME280;2772;42.700;23.304;2023-02-23T13:11:41;94892.50;;;17.32;52.31
5500;BME280;2772;42.700;23.304;2023-02-23T13:14:15;94898.06;;;17.39;52.60
5500;BME280;2772;42.700;23.304;2023-02-23T13:16:50;94893.19;;;17.45;52.69
5500;BME280;2772;42.700;23.304;2023-02-23T13:19:23;94887.53;;;17.50;52.78
5500;BME280;2772;42.700;23.304;2023-02-23T13:21:56;94893.75;;;17.54;52.54
5500;BME280;2772;42.700;23.304;2023-02-23T13:24:26;94889.94;;;17.55;52.34
5500;BME280;2772;42.700;23.304;2023-02-23T13:27:00;94887.38;;;17.62;52.18
5500;BME280;2772;42.700;23.304;2023-02-23T13:29:32;94882.41;;;17.64;52.36
5500;BME280;2772;42.700;23.304;2023-02-23T13:32:00;94881.19;;;17.61;52.06
5500;BME280;2772;42.700;23.304;2023-02-23T13:34:32;94887.44;;;17.65;52.21
5500;BME280;2772;42.700;23.304;2023-02-23T13:37:04;94875.16;;;17.68;51.50
5500;BME280;2772;42.700;23.304;2023-02-23T13:39:45;94884.38;;;17.67;51.73